createdAt,value
2018-02-25T00:02:24.000Z,39
2018-02-25T00:12:24.000Z,39
2018-02-25T00:22:24.000Z,38.9
2018-02-25T00:42:24.000Z,38.8
2018-02-25T00:52:24.000Z,23.9
2018-02-25T01:02:24.000Z,22
2018-02-25T01:12:24.000Z,20.8
2018-02-25T01:22:24.000Z,20.3
2018-02-25T01:32:24.000Z,20.3
2018-02-25T01:42:24.000Z,20.3
2018-02-25T01:52:24.000Z,20
2018-02-25T02:02:24.000Z,20
2018-02-25T02:12:24.000Z,20
2018-02-25T02:22:24.000Z,19.9
2018-02-25T02:32:25.000Z,19.8
2018-02-25T02:42:24.000Z,19.7
2018-02-25T02:52:24.000Z,19.8
2018-02-25T03:02:24.000Z,19.7
2018-02-25T03:12:24.000Z,19.6
2018-02-25T03:22:24.000Z,19.8
2018-02-25T03:32:24.000Z,20
2018-02-25T03:42:24.000Z,20
2018-02-25T03:52:24.000Z,20.1
2018-02-25T04:02:24.000Z,20.3
2018-02-25T04:12:24.000Z,20.5
2018-02-25T04:22:24.000Z,20.7
2018-02-25T04:32:24.000Z,20.8
2018-02-25T04:42:24.000Z,21.2
2018-02-25T04:52:24.000Z,21.2
2018-02-25T05:02:24.000Z,21.3
2018-02-25T05:12:24.000Z,21.5
2018-02-25T05:22:24.000Z,21.8
2018-02-25T05:32:24.000Z,21.9
2018-02-25T05:42:24.000Z,21.8
2018-02-25T05:52:24.000Z,21.7
2018-02-25T06:02:25.000Z,21.7
2018-02-25T06:12:25.000Z,21.7
2018-02-25T06:22:24.000Z,22.1
2018-02-25T06:32:25.000Z,22
2018-02-25T06:42:25.000Z,21.9
2018-02-25T06:52:25.000Z,22
2018-02-25T07:02:27.000Z,22.1
2018-02-25T07:12:25.000Z,22.3
2018-02-25T07:22:25.000Z,22.2
2018-02-25T07:32:25.000Z,22.1
2018-02-25T07:42:25.000Z,22
2018-02-25T07:52:25.000Z,22.1
2018-02-25T08:02:25.000Z,21.8
2018-02-25T08:12:25.000Z,21.9
2018-02-25T08:22:25.000Z,21.9
2018-02-25T08:32:25.000Z,33.5
2018-02-25T08:42:25.000Z,34.9
2018-02-25T08:52:25.000Z,35.2
2018-02-25T09:02:25.000Z,34.4
2018-02-25T09:12:25.000Z,34.9
2018-02-25T09:22:25.000Z,34.9
2018-02-25T09:32:25.000Z,35.1
2018-02-25T09:42:25.000Z,35.3
2018-02-25T09:52:25.000Z,35.3
2018-02-25T10:02:25.000Z,35.5
2018-02-25T10:12:25.000Z,35.5
2018-02-25T10:22:25.000Z,35.7
2018-02-25T10:32:25.000Z,35.8
2018-02-25T10:42:25.000Z,35.7
2018-02-25T10:52:25.000Z,35.8
2018-02-25T11:02:25.000Z,36.5
2018-02-25T11:12:25.000Z,35.9
2018-02-25T11:22:25.000Z,36.2
2018-02-25T11:32:25.000Z,36.2
2018-02-25T11:42:25.000Z,36.1
2018-02-25T11:52:25.000Z,36
2018-02-25T12:02:25.000Z,35.9
2018-02-25T12:12:25.000Z,35.9
2018-02-25T12:22:25.000Z,35.9
2018-02-25T12:32:25.000Z,35.9
2018-02-25T12:42:25.000Z,36
2018-02-25T12:52:25.000Z,36
2018-02-25T13:02:25.000Z,36
2018-02-25T13:12:25.000Z,36
2018-02-25T13:22:25.000Z,36.1
2018-02-25T13:32:25.000Z,36
2018-02-25T13:42:25.000Z,36
2018-02-25T13:52:26.000Z,36.1
2018-02-25T14:02:28.000Z,36.1
2018-02-25T14:12:26.000Z,36.2
2018-02-25T14:22:26.000Z,36.3
2018-02-25T14:32:26.000Z,36.3
2018-02-25T14:42:26.000Z,36.3
2018-02-25T14:52:26.000Z,36.2
2018-02-25T15:02:26.000Z,36.3
2018-02-25T15:12:26.000Z,36.3
2018-02-25T15:22:26.000Z,36.3
2018-02-25T15:32:26.000Z,36.3
2018-02-25T15:42:26.000Z,36.3
2018-02-25T15:52:26.000Z,36.3
2018-02-25T16:02:26.000Z,36.3
2018-02-25T16:12:26.000Z,36.2
2018-02-25T16:22:26.000Z,36.3
2018-02-25T16:32:26.000Z,36.2
2018-02-25T16:42:26.000Z,36.2
2018-02-25T16:52:26.000Z,36.2
2018-02-25T17:02:29.000Z,36.3
2018-02-25T17:12:26.000Z,36.2
2018-02-25T17:22:26.000Z,36.3
2018-02-25T17:32:27.000Z,36.3
2018-02-25T17:42:26.000Z,36.3
2018-02-25T17:52:26.000Z,36.4
2018-02-25T18:02:26.000Z,36.3
2018-02-25T18:12:26.000Z,36.2
2018-02-25T18:22:26.000Z,36.2
2018-02-25T18:32:26.000Z,36.4
2018-02-25T18:42:26.000Z,36.2
2018-02-25T18:52:26.000Z,36.3
2018-02-25T19:02:26.000Z,36.2
2018-02-25T19:12:28.000Z,36.1
2018-02-25T19:22:26.000Z,36.1
2018-02-25T19:32:26.000Z,36.1
2018-02-25T19:42:26.000Z,36
2018-02-25T19:52:26.000Z,36
2018-02-25T20:02:27.000Z,35.9
2018-02-25T20:12:26.000Z,35.9
2018-02-25T20:22:27.000Z,35.8
2018-02-25T20:32:26.000Z,35.8
2018-02-25T20:42:26.000Z,35.8
2018-02-25T20:52:27.000Z,35.8
2018-02-25T21:02:27.000Z,35.8
2018-02-25T21:12:27.000Z,35.9
2018-02-25T21:22:28.000Z,36.1
2018-02-25T21:32:27.000Z,35.9
2018-02-25T21:42:27.000Z,35.9
2018-02-25T21:52:27.000Z,36.1
2018-02-25T22:02:27.000Z,36.1
2018-02-25T22:12:27.000Z,36.1
2018-02-25T22:22:27.000Z,36.1
2018-02-25T22:32:27.000Z,36.1
2018-02-25T22:42:27.000Z,36.3
2018-02-25T22:52:27.000Z,36.2
2018-02-25T23:02:27.000Z,36.3
2018-02-25T23:12:27.000Z,36.4
2018-02-25T23:22:27.000Z,36.3
2018-02-25T23:32:27.000Z,36.4
2018-02-25T23:42:27.000Z,30.8
2018-02-25T23:52:27.000Z,25.5
